createdAt,value
2018-08-16T00:00:29.434Z,17.88
2018-08-16T00:03:29.739Z,17.76
2018-08-16T00:04:29.468Z,17.79
2018-08-16T00:05:29.453Z,17.84
2018-08-16T00:06:29.447Z,17.76
2018-08-16T00:17:29.205Z,17.62
2018-08-16T00:18:29.191Z,17.63
2018-08-16T00:19:29.178Z,17.62
2018-08-16T00:20:29.280Z,17.57
2018-08-16T00:23:29.517Z,17.45
2018-08-16T00:24:29.132Z,17.47
2018-08-16T00:25:29.099Z,17.37
2018-08-16T00:26:29.087Z,17.49
2018-08-16T00:29:29.419Z,17.47
2018-08-16T00:30:29.819Z,17.49
2018-08-16T00:31:29.022Z,17.47
2018-08-16T00:32:29.009Z,17.59
2018-08-16T00:33:28.992Z,17.62
2018-08-16T00:34:28.999Z,17.59
2018-08-16T00:35:29.342Z,17.66
2018-08-16T00:36:28.977Z,17.56
2018-08-16T00:37:28.953Z,17.65
2018-08-16T00:41:29.243Z,17.69
2018-08-16T00:45:28.857Z,17.79
2018-08-16T00:46:28.934Z,17.94
2018-08-16T00:48:28.911Z,17.88
2018-08-16T00:49:28.856Z,17.94
2018-08-16T00:50:28.841Z,17.88
2018-08-16T00:51:28.973Z,18.03
2018-08-16T00:53:28.890Z,17.97
2018-08-16T00:54:29.016Z,17.97
2018-08-16T00:55:28.698Z,17.97
2018-08-16T00:56:28.791Z,17.99
2018-08-16T00:57:28.677Z,17.96
2018-08-16T00:58:28.658Z,17.97
2018-08-16T00:59:28.703Z,17.96
2018-08-16T01:00:28.812Z,17.97
2018-08-16T01:01:29.075Z,17.99
2018-08-16T01:02:28.621Z,18.06
2018-08-16T01:03:28.594Z,17.99
2018-08-16T01:04:28.579Z,18.03
2018-08-16T01:05:28.616Z,18.08
2018-08-16T01:06:28.553Z,18.08
2018-08-16T01:07:28.632Z,18.11
2018-08-16T01:08:28.850Z,17.99
2018-08-16T01:09:28.581Z,18.05
2018-08-16T01:11:28.558Z,18.03
2018-08-16T01:12:28.490Z,17.99
2018-08-16T01:13:28.491Z,18.02
2018-08-16T01:14:28.446Z,17.94
2018-08-16T01:15:28.731Z,18.05
2018-08-16T01:16:28.419Z,17.99
2018-08-16T01:18:28.462Z,18.03
2018-08-16T01:19:28.702Z,17.93
2018-08-16T01:21:28.667Z,17.88
2018-08-16T01:22:28.353Z,17.90
2018-08-16T01:24:28.361Z,17.90
2018-08-16T01:25:28.297Z,17.90
2018-08-16T01:26:28.584Z,17.96
2018-08-16T01:27:28.470Z,17.94
2018-08-16T01:28:28.558Z,17.93
2018-08-16T01:29:28.241Z,17.84
2018-08-16T01:30:28.292Z,17.88
2018-08-16T01:32:28.204Z,17.78
2018-08-16T01:33:28.223Z,17.79
2018-08-16T01:34:28.186Z,17.76
2018-08-16T01:35:28.562Z,17.72
2018-08-16T01:36:28.199Z,17.68
2018-08-16T01:37:28.137Z,17.78
2018-08-16T01:38:28.123Z,17.69
2018-08-16T01:40:28.201Z,17.65
2018-08-16T01:41:28.082Z,17.69
2018-08-16T01:42:28.416Z,17.73
2018-08-16T01:47:27.999Z,17.68
2018-08-16T01:48:28.035Z,17.63
2018-08-16T01:49:28.276Z,17.66
2018-08-16T01:50:27.960Z,17.57
2018-08-16T01:51:27.945Z,17.63
2018-08-16T01:52:27.932Z,17.53
2018-08-16T01:56:28.191Z,17.57
2018-08-16T01:58:27.948Z,17.45
2018-08-16T01:59:27.834Z,17.49
2018-08-16T02:00:27.874Z,17.45
2018-08-16T02:02:28.195Z,17.47
2018-08-16T02:04:27.883Z,17.45
2018-08-16T02:06:27.793Z,17.46
2018-08-16T02:07:27.873Z,17.41
2018-08-16T02:08:28.014Z,17.43
2018-08-16T02:09:27.701Z,17.47
2018-08-16T02:10:27.688Z,17.41
2018-08-16T02:11:27.670Z,17.47
2018-08-16T02:15:27.917Z,17.38
2018-08-16T02:18:27.652Z,17.35
2018-08-16T02:19:27.636Z,17.38
2018-08-16T02:20:27.622Z,17.41
2018-08-16T02:21:27.557Z,17.38
2018-08-16T02:22:27.840Z,17.35
2018-08-16T02:23:27.510Z,17.32
2018-08-16T02:24:27.542Z,17.27
2018-08-16T02:26:27.499Z,17.27
2018-08-16T02:27:27.467Z,17.25
2018-08-16T02:28:27.565Z,17.22
2018-08-16T02:29:27.726Z,17.41
2018-08-16T02:30:27.463Z,17.34
2018-08-16T02:32:27.382Z,17.34
2018-08-16T02:35:27.509Z,17.31
2018-08-16T02:36:27.680Z,17.34
2018-08-16T02:37:27.316Z,17.37
2018-08-16T02:38:27.304Z,17.24
2018-08-16T02:39:27.410Z,17.27
2018-08-16T02:46:27.295Z,17.20
2018-08-16T02:47:27.182Z,17.14
2018-08-16T02:48:27.264Z,17.17
2018-08-16T02:49:27.151Z,17.25
2018-08-16T02:50:27.386Z,17.17
2018-08-16T02:51:27.523Z,17.13
2018-08-16T02:52:27.110Z,17.10
2018-08-16T02:53:27.092Z,17.16
2018-08-16T02:54:27.088Z,17.13
2018-08-16T02:55:27.065Z,17.13
2018-08-16T02:56:27.205Z,17.09
2018-08-16T02:57:27.133Z,17.16
2018-08-16T02:58:27.324Z,17.14
2018-08-16T02:59:27.014Z,16.99
2018-08-16T03:03:27.023Z,16.94
2018-08-16T03:04:27.043Z,16.99
2018-08-16T03:06:27.309Z,16.97
2018-08-16T03:11:26.862Z,16.92
2018-08-16T03:12:27.147Z,16.98
2018-08-16T03:13:26.815Z,16.95
2018-08-16T03:14:26.878Z,16.92
2018-08-16T03:22:26.714Z,16.80
2018-08-16T03:23:26.675Z,16.73
2018-08-16T03:27:26.815Z,16.67
2018-08-16T03:28:26.628Z,16.57
2018-08-16T03:29:26.690Z,16.65
2018-08-16T03:30:26.577Z,16.65
2018-08-16T03:31:26.867Z,16.51
2018-08-16T03:33:26.691Z,16.49
2018-08-16T03:34:26.616Z,16.49
2018-08-16T03:42:26.425Z,16.26
2018-08-16T03:43:26.397Z,16.29
2018-08-16T03:44:26.686Z,16.32
2018-08-16T03:48:26.345Z,16.25
2018-08-16T03:50:26.611Z,16.36
2018-08-16T03:51:26.279Z,16.33
2018-08-16T03:52:26.348Z,16.26
2018-08-16T03:53:26.451Z,16.16
2018-08-16T03:54:26.313Z,16.18
2018-08-16T03:55:26.247Z,16.17
2018-08-16T03:56:26.216Z,16.18
2018-08-16T03:57:26.493Z,16.17
2018-08-16T03:59:26.245Z,16.18
2018-08-16T04:00:26.222Z,16.17
2018-08-16T04:01:26.139Z,16.14
2018-08-16T04:02:26.123Z,16.13
2018-08-16T04:05:26.356Z,16.08
2018-08-16T04:06:26.388Z,16.16
2018-08-16T04:07:26.219Z,16.09
2018-08-16T04:08:26.059Z,16.08
2018-08-16T04:09:26.043Z,16.05
2018-08-16T04:11:26.354Z,16.05
2018-08-16T04:12:25.982Z,16.05
2018-08-16T04:13:25.969Z,15.99
2018-08-16T04:14:25.976Z,16.03
2018-08-16T04:16:25.926Z,16.08
2018-08-16T04:17:25.958Z,16.00
2018-08-16T04:18:26.196Z,15.98
2018-08-16T04:20:25.890Z,15.95
2018-08-16T04:21:26.068Z,15.96
2018-08-16T04:22:25.934Z,15.96
2018-08-16T04:23:25.890Z,15.90
2018-08-16T04:24:25.810Z,15.96
2018-08-16T04:26:25.780Z,15.98
2018-08-16T04:27:25.775Z,15.98
2018-08-16T04:28:25.779Z,16.00
2018-08-16T04:29:25.786Z,15.99
2018-08-16T04:31:26.120Z,15.98
2018-08-16T04:32:25.855Z,16.03
2018-08-16T04:35:25.735Z,16.03
2018-08-16T04:37:25.906Z,15.98
2018-08-16T04:38:25.978Z,16.06
2018-08-16T04:39:25.712Z,16.05
2018-08-16T04:41:25.736Z,16.13
2018-08-16T04:43:25.567Z,16.05
2018-08-16T04:44:25.522Z,16.10
2018-08-16T04:45:25.804Z,16.06
2018-08-16T04:47:25.541Z,16.14
2018-08-16T04:48:25.484Z,16.16
2018-08-16T04:51:25.720Z,16.18
2018-08-16T04:52:25.406Z,16.29
2018-08-16T04:54:25.425Z,16.37
2018-08-16T04:55:25.362Z,16.32
2018-08-16T04:56:25.419Z,16.43
2018-08-16T04:57:25.647Z,16.43
2018-08-16T04:58:25.637Z,16.47
2018-08-16T05:00:25.339Z,16.57
2018-08-16T05:01:25.279Z,16.58
2018-08-16T05:05:25.534Z,16.74
2018-08-16T05:06:25.257Z,16.74
2018-08-16T05:12:25.471Z,16.97
2018-08-16T05:13:25.103Z,17.06
2018-08-16T05:14:25.092Z,16.91
2018-08-16T05:15:25.077Z,16.98
2018-08-16T05:16:25.063Z,17.02
2018-08-16T05:17:25.159Z,17.01
2018-08-16T05:18:25.083Z,17.10
2018-08-16T05:19:25.017Z,17.09
2018-08-16T05:20:25.106Z,17.07
2018-08-16T05:21:24.991Z,17.09
2018-08-16T05:22:25.030Z,17.27
2018-08-16T05:23:25.217Z,17.25
2018-08-16T05:24:25.363Z,17.30
2018-08-16T05:25:25.115Z,17.35
2018-08-16T05:29:24.884Z,17.47
2018-08-16T05:30:24.924Z,17.39
2018-08-16T05:31:25.153Z,17.52
2018-08-16T05:33:24.828Z,17.49
2018-08-16T05:34:24.811Z,17.49
2018-08-16T05:35:24.812Z,17.65
2018-08-16T05:36:24.833Z,17.72
2018-08-16T05:37:24.773Z,17.76
2018-08-16T05:38:25.120Z,17.83
2018-08-16T05:40:24.980Z,17.88
2018-08-16T05:41:24.793Z,17.97
2018-08-16T05:43:24.829Z,17.97
2018-08-16T05:44:25.228Z,18.09
2018-08-16T05:45:25.035Z,18.18
2018-08-16T05:47:24.674Z,18.15
2018-08-16T05:48:24.619Z,18.23
2018-08-16T05:49:24.663Z,18.33
2018-08-16T05:51:24.896Z,18.51
2018-08-16T05:52:24.565Z,18.51
2018-08-16T05:53:24.578Z,18.57
2018-08-16T05:54:24.550Z,18.54
2018-08-16T05:55:24.612Z,18.61
2018-08-16T05:56:24.527Z,18.52
2018-08-16T06:01:24.731Z,18.76
2018-08-16T06:02:24.436Z,18.86
2018-08-16T06:03:24.658Z,18.86
2018-08-16T06:04:24.599Z,18.89
2018-08-16T06:05:24.979Z,18.93
2018-08-16T06:06:24.574Z,18.96
2018-08-16T06:07:24.658Z,18.98
2018-08-16T06:08:24.595Z,18.97
2018-08-16T06:09:24.399Z,19.07
2018-08-16T06:10:24.334Z,19.22
2018-08-16T06:11:24.696Z,19.20
2018-08-16T06:12:24.536Z,19.37
2018-08-16T06:18:24.242Z,19.49
2018-08-16T06:19:24.266Z,19.60
2018-08-16T06:20:24.197Z,19.53
2018-08-16T06:21:24.181Z,19.59
2018-08-16T06:23:24.154Z,19.70
2018-08-16T06:24:24.144Z,19.75
2018-08-16T06:25:24.281Z,19.77
2018-08-16T06:26:24.319Z,19.77
2018-08-16T06:27:24.103Z,19.81
2018-08-16T06:28:24.107Z,19.90
2018-08-16T06:29:24.103Z,19.93
2018-08-16T06:30:24.162Z,19.96
2018-08-16T06:31:24.207Z,19.90
2018-08-16T06:32:24.210Z,20.07
2018-08-16T06:33:24.138Z,19.92
2018-08-16T06:34:24.169Z,19.97
2018-08-16T06:37:24.257Z,20.15
2018-08-16T06:38:23.974Z,20.12
2018-08-16T06:39:23.956Z,20.12
2018-08-16T06:40:23.940Z,20.09
2018-08-16T06:41:23.935Z,20.22
2018-08-16T06:43:23.954Z,20.26
2018-08-16T06:44:23.925Z,20.34
2018-08-16T06:45:24.191Z,20.34
2018-08-16T06:46:24.086Z,20.30
2018-08-16T06:47:23.874Z,20.44
2018-08-16T06:48:23.847Z,20.37
2018-08-16T06:49:23.874Z,20.46
2018-08-16T06:50:23.815Z,20.50
2018-08-16T06:51:23.905Z,20.52
2018-08-16T06:53:23.786Z,20.55
2018-08-16T06:54:24.065Z,20.67
2018-08-16T06:55:23.813Z,20.75
2018-08-16T06:56:23.746Z,20.75
2018-08-16T06:58:23.796Z,20.75
2018-08-16T06:59:23.725Z,20.86
2018-08-16T07:00:23.690Z,20.90
2018-08-16T07:07:23.956Z,21.41
2018-08-16T07:14:23.807Z,21.56
2018-08-16T07:15:23.538Z,21.55
2018-08-16T07:16:23.945Z,21.63
2018-08-16T07:17:23.704Z,21.67
2018-08-16T07:18:23.519Z,21.71
2018-08-16T07:19:24.397Z,21.77
2018-08-16T07:21:24.033Z,21.90
2018-08-16T07:22:23.873Z,21.97
2018-08-16T07:23:23.666Z,21.93
2018-08-16T07:24:25.154Z,22.04
2018-08-16T07:25:23.515Z,22.06
2018-08-16T07:26:23.384Z,22.06
2018-08-16T07:27:23.384Z,22.18
2018-08-16T07:28:23.363Z,22.27
2018-08-16T07:29:23.367Z,22.25
2018-08-16T07:31:23.646Z,22.51
2018-08-16T07:34:23.294Z,22.71
2018-08-16T07:35:23.282Z,22.53
2018-08-16T07:36:23.276Z,22.67
2018-08-16T07:37:23.615Z,22.85
2018-08-16T07:38:23.249Z,22.81
2018-08-16T07:39:23.258Z,22.89
2018-08-16T07:40:23.230Z,22.98
2018-08-16T07:41:23.260Z,23.10
2018-08-16T07:43:23.549Z,23.17
2018-08-16T07:44:23.194Z,23.34
2018-08-16T07:45:23.192Z,23.42
2018-08-16T07:46:23.223Z,23.46
2018-08-16T07:47:23.171Z,23.63
2018-08-16T07:48:23.145Z,23.61
2018-08-16T07:49:23.201Z,23.70
2018-08-16T07:50:23.423Z,23.81
2018-08-16T07:51:23.220Z,23.79
2018-08-16T07:52:23.103Z,23.88
2018-08-16T07:53:23.093Z,23.91
2018-08-16T07:55:23.420Z,23.89
2018-08-16T07:56:23.468Z,23.94
2018-08-16T07:57:23.081Z,24.10
2018-08-16T07:58:23.090Z,24.01
2018-08-16T07:59:23.033Z,24.33
2018-08-16T08:00:23.064Z,24.36
2018-08-16T08:01:23.070Z,24.43
2018-08-16T08:02:23.303Z,24.43
2018-08-16T08:03:22.990Z,24.37
2018-08-16T08:05:22.998Z,24.37
2018-08-16T08:07:23.014Z,24.59
2018-08-16T08:08:23.276Z,24.79
2018-08-16T08:09:23.014Z,24.79
2018-08-16T08:10:22.924Z,24.81
2018-08-16T08:11:22.917Z,24.90
2018-08-16T08:12:23.064Z,25.00
2018-08-16T08:13:22.941Z,25.11
2018-08-16T08:15:23.205Z,25.46
2018-08-16T08:16:22.871Z,25.27
2018-08-16T08:17:22.857Z,25.22
2018-08-16T08:18:22.853Z,25.31
2018-08-16T08:19:22.887Z,25.27
2018-08-16T08:20:22.848Z,25.23
2018-08-16T08:21:22.850Z,25.36
2018-08-16T08:23:22.827Z,25.63
2018-08-16T08:24:22.824Z,25.86
2018-08-16T08:25:23.017Z,25.88
2018-08-16T08:27:22.871Z,25.58
2018-08-16T08:28:23.034Z,25.49
2018-08-16T08:29:22.782Z,25.67
2018-08-16T08:30:22.738Z,25.41
2018-08-16T08:31:22.778Z,25.52
2018-08-16T08:32:23.020Z,25.45
2018-08-16T08:33:22.707Z,25.46
2018-08-16T08:34:22.717Z,25.34
2018-08-16T08:35:22.694Z,25.64
2018-08-16T08:36:22.701Z,25.68
2018-08-16T08:37:22.720Z,25.67
2018-08-16T08:38:22.669Z,25.67
2018-08-16T08:39:22.956Z,25.70
2018-08-16T08:40:22.700Z,25.73
2018-08-16T08:42:22.652Z,25.85
2018-08-16T08:43:22.745Z,25.85
2018-08-16T08:44:22.622Z,25.95
2018-08-16T08:47:22.622Z,25.93
2018-08-16T08:48:22.579Z,25.98
2018-08-16T08:49:22.720Z,25.83
2018-08-16T08:56:22.540Z,26.56
2018-08-16T08:57:22.568Z,26.63
2018-08-16T08:58:22.670Z,26.34
2018-08-16T08:59:22.875Z,26.41
2018-08-16T09:00:22.490Z,26.38
2018-08-16T09:01:22.553Z,26.42
2018-08-16T09:02:22.487Z,26.53
2018-08-16T09:03:22.575Z,26.45
2018-08-16T09:04:22.621Z,26.30
2018-08-16T09:07:22.502Z,26.31
2018-08-16T09:08:22.422Z,26.46
2018-08-16T09:10:22.749Z,26.23
2018-08-16T09:11:22.702Z,26.34
2018-08-16T09:12:22.397Z,26.46
2018-08-16T09:13:22.726Z,26.65
2018-08-16T09:15:22.538Z,26.63
2018-08-16T09:16:22.443Z,26.64
2018-08-16T09:17:22.663Z,26.36
2018-08-16T09:18:22.350Z,26.52
2018-08-16T09:19:22.388Z,26.57
2018-08-16T09:20:22.329Z,26.64
2018-08-16T09:21:22.327Z,26.83
2018-08-16T09:22:22.337Z,26.86
2018-08-16T09:24:22.356Z,27.05
2018-08-16T09:25:22.507Z,27.16
2018-08-16T09:26:22.403Z,27.19
2018-08-16T09:27:22.411Z,27.42
2018-08-16T09:28:22.694Z,27.41
2018-08-16T09:29:22.473Z,27.45
2018-08-16T09:30:22.265Z,27.23
2018-08-16T09:31:22.311Z,27.31
2018-08-16T09:32:22.248Z,27.20
2018-08-16T09:33:22.240Z,27.04
2018-08-16T09:37:22.287Z,26.80
2018-08-16T09:38:22.303Z,26.93
2018-08-16T09:39:22.279Z,27.07
2018-08-16T09:40:22.197Z,27.44
2018-08-16T09:41:22.489Z,27.49
2018-08-16T09:42:22.179Z,27.83
2018-08-16T09:43:22.317Z,28.09
2018-08-16T09:44:22.169Z,28.03
2018-08-16T09:45:22.279Z,28.05
2018-08-16T09:46:22.154Z,28.01
2018-08-16T09:47:22.200Z,28.05
2018-08-16T09:49:22.488Z,27.83
2018-08-16T09:50:22.134Z,27.90
2018-08-16T09:51:22.175Z,27.88
2018-08-16T09:52:22.118Z,27.85
2018-08-16T09:53:22.112Z,27.66
2018-08-16T09:54:22.106Z,27.72
2018-08-16T09:55:22.505Z,27.69
2018-08-16T09:56:22.155Z,27.64
2018-08-16T09:57:22.085Z,27.63
2018-08-16T09:59:22.161Z,27.58
2018-08-16T10:00:22.250Z,27.75
2018-08-16T10:01:22.475Z,27.42
2018-08-16T10:02:22.058Z,27.75
2018-08-16T10:03:22.067Z,28.17
2018-08-16T10:04:22.047Z,28.43
2018-08-16T10:05:22.043Z,28.34
2018-08-16T10:06:22.033Z,28.24
2018-08-16T10:07:22.421Z,28.03
2018-08-16T10:08:22.112Z,27.95
2018-08-16T10:09:22.017Z,27.78
2018-08-16T10:10:22.030Z,27.98
2018-08-16T10:11:22.008Z,28.13
2018-08-16T10:12:22.006Z,28.31
2018-08-16T10:15:21.988Z,28.53
2018-08-16T10:16:22.018Z,28.42
2018-08-16T10:19:22.333Z,27.95
2018-08-16T10:20:22.193Z,28.24
2018-08-16T10:21:21.965Z,28.12
2018-08-16T10:22:21.966Z,28.01
2018-08-16T10:23:22.163Z,28.13
2018-08-16T10:24:21.952Z,27.83
2018-08-16T10:25:22.292Z,28.25
2018-08-16T10:26:21.999Z,28.22
2018-08-16T10:27:21.935Z,28.28
2018-08-16T10:28:21.996Z,28.27
2018-08-16T10:29:21.930Z,28.31
2018-08-16T10:30:21.923Z,28.17
2018-08-16T10:32:21.981Z,28.66
2018-08-16T10:33:21.951Z,28.81
2018-08-16T10:34:21.906Z,28.98
2018-08-16T10:35:21.900Z,29.06
2018-08-16T10:36:21.901Z,28.89
2018-08-16T10:38:23.251Z,28.68
2018-08-16T10:39:21.898Z,28.79
2018-08-16T10:42:21.882Z,29.59
2018-08-16T10:43:21.878Z,29.21
2018-08-16T10:44:22.411Z,29.10
2018-08-16T10:45:21.899Z,29.07
2018-08-16T10:46:21.857Z,29.15
2018-08-16T10:47:21.880Z,29.17
2018-08-16T10:48:21.881Z,29.22
2018-08-16T10:49:21.986Z,29.28
2018-08-16T10:50:21.953Z,29.49
2018-08-16T10:51:22.140Z,29.36
2018-08-16T10:53:21.946Z,28.72
2018-08-16T10:54:21.860Z,28.71
2018-08-16T10:55:21.855Z,29.04
2018-08-16T10:56:21.883Z,29.02
2018-08-16T10:57:22.120Z,29.44
2018-08-16T10:58:21.817Z,29.71
2018-08-16T10:59:21.813Z,29.43
2018-08-16T11:00:21.814Z,29.41
2018-08-16T11:01:21.827Z,29.58
2018-08-16T11:02:21.851Z,29.68
2018-08-16T11:03:22.102Z,29.89
2018-08-16T11:04:21.838Z,30.14
2018-08-16T11:05:21.793Z,29.68
2018-08-16T11:06:21.787Z,29.54
2018-08-16T11:07:21.811Z,29.19
2018-08-16T11:08:21.837Z,29.41
2018-08-16T11:09:22.085Z,29.49
2018-08-16T11:10:21.805Z,29.52
2018-08-16T11:11:22.021Z,29.84
2018-08-16T11:12:21.858Z,29.80
2018-08-16T11:14:21.919Z,29.91
2018-08-16T11:15:21.912Z,29.56
2018-08-16T11:16:22.078Z,29.09
2018-08-16T11:17:21.758Z,29.24
2018-08-16T11:18:21.763Z,29.37
2018-08-16T11:19:21.751Z,29.65
2018-08-16T11:20:22.182Z,30.07
2018-08-16T11:21:22.124Z,29.66
2018-08-16T11:22:22.191Z,29.59
2018-08-16T11:24:23.036Z,28.74
2018-08-16T11:25:22.478Z,29.29
2018-08-16T11:27:21.773Z,29.83
2018-08-16T11:28:22.079Z,29.87
2018-08-16T11:29:21.778Z,29.99
2018-08-16T11:30:21.715Z,29.99
2018-08-16T11:31:23.960Z,29.93
2018-08-16T11:32:22.407Z,30.00
2018-08-16T11:33:21.778Z,29.92
2018-08-16T11:34:21.825Z,29.98
2018-08-16T11:35:22.015Z,29.70
2018-08-16T11:36:21.701Z,29.96
2018-08-16T11:37:21.761Z,30.15
2018-08-16T11:38:21.698Z,30.52
2018-08-16T11:39:21.746Z,30.28
2018-08-16T11:40:21.849Z,29.86
2018-08-16T11:41:21.983Z,29.89
2018-08-16T11:42:21.686Z,30.10
2018-08-16T11:43:21.677Z,29.77
2018-08-16T11:44:21.705Z,29.74
2018-08-16T11:45:21.741Z,30.00
2018-08-16T11:46:21.700Z,30.26
2018-08-16T11:47:21.669Z,30.52
2018-08-16T11:48:22.041Z,30.60
2018-08-16T11:49:22.364Z,30.67
2018-08-16T11:50:24.784Z,30.99
2018-08-16T11:51:23.696Z,31.23
2018-08-16T11:54:23.850Z,30.70
2018-08-16T11:55:21.688Z,30.26
2018-08-16T11:56:21.717Z,30.13
2018-08-16T11:57:21.694Z,30.53
2018-08-16T11:58:21.658Z,30.74
2018-08-16T11:59:21.642Z,30.88
2018-08-16T12:00:21.988Z,31.14
2018-08-16T12:03:21.734Z,30.55
2018-08-16T12:04:21.629Z,30.88
2018-08-16T12:05:21.659Z,31.27
2018-08-16T12:07:21.939Z,31.08
2018-08-16T12:08:21.642Z,31.04
2018-08-16T12:09:21.668Z,31.07
2018-08-16T12:10:21.612Z,30.64
2018-08-16T12:11:21.618Z,30.39
2018-08-16T12:12:21.613Z,30.10
2018-08-16T12:13:21.921Z,30.56
2018-08-16T12:15:21.765Z,30.71
2018-08-16T12:16:21.602Z,30.00
2018-08-16T12:17:21.605Z,29.78
2018-08-16T12:19:21.937Z,29.87
2018-08-16T12:20:21.596Z,30.00
2018-08-16T12:21:21.636Z,30.55
2018-08-16T12:22:21.591Z,30.82
2018-08-16T12:23:21.836Z,31.08
2018-08-16T12:24:21.689Z,31.02
2018-08-16T12:25:21.881Z,31.66
2018-08-16T12:26:21.656Z,31.32
2018-08-16T12:28:21.652Z,31.48
2018-08-16T12:29:21.596Z,31.76
2018-08-16T12:30:21.566Z,31.19
2018-08-16T12:31:21.677Z,30.97
2018-08-16T12:32:21.878Z,31.64
2018-08-16T12:34:21.584Z,32.24
2018-08-16T12:35:21.606Z,32.32
2018-08-16T12:36:21.620Z,32.28
2018-08-16T12:38:21.590Z,32.31
2018-08-16T12:39:21.968Z,32.09
2018-08-16T12:40:21.609Z,31.76
2018-08-16T12:43:21.589Z,31.11
2018-08-16T12:44:21.540Z,31.24
2018-08-16T12:45:21.948Z,30.83
2018-08-16T12:46:21.578Z,30.85
2018-08-16T12:47:21.581Z,30.85
2018-08-16T12:48:21.533Z,30.83
2018-08-16T12:49:21.541Z,31.17
2018-08-16T12:50:21.556Z,31.46
2018-08-16T12:51:21.599Z,32.11
2018-08-16T12:53:21.917Z,32.16
2018-08-16T12:54:21.621Z,32.57
2018-08-16T12:55:21.649Z,32.70
2018-08-16T12:56:21.594Z,32.95
2018-08-16T12:58:21.533Z,33.13
2018-08-16T12:59:21.812Z,33.24
2018-08-16T13:00:21.505Z,33.01
2018-08-16T13:01:21.508Z,32.58
2018-08-16T13:03:21.604Z,31.76
2018-08-16T13:05:21.799Z,31.52
2018-08-16T13:06:21.492Z,31.46
2018-08-16T13:07:21.492Z,31.99
2018-08-16T13:08:21.498Z,32.53
2018-08-16T13:09:21.795Z,31.79
2018-08-16T13:10:21.517Z,31.82
2018-08-16T13:11:21.803Z,31.90
2018-08-16T13:12:21.503Z,31.38
2018-08-16T13:13:21.698Z,31.84
2018-08-16T13:14:21.641Z,32.21
2018-08-16T13:15:21.744Z,32.58
2018-08-16T13:16:21.487Z,32.60
2018-08-16T13:17:21.488Z,32.95
2018-08-16T13:19:21.548Z,33.12
2018-08-16T13:20:21.513Z,33.49
2018-08-16T13:21:21.654Z,33.69
2018-08-16T13:23:21.555Z,32.54
2018-08-16T13:24:21.815Z,32.36
2018-08-16T13:25:21.498Z,32.04
2018-08-16T13:26:21.475Z,31.94
2018-08-16T13:27:21.626Z,32.13
2018-08-16T13:28:21.473Z,32.35
2018-08-16T13:29:21.483Z,32.16
2018-08-16T13:30:21.793Z,32.16
2018-08-16T13:31:21.621Z,31.78
2018-08-16T13:32:21.464Z,31.86
2018-08-16T13:33:21.508Z,31.75
2018-08-16T13:34:21.449Z,32.32
2018-08-16T13:35:21.451Z,32.64
2018-08-16T13:36:22.025Z,32.64
2018-08-16T13:37:21.501Z,32.53
2018-08-16T13:38:21.452Z,32.57
2018-08-16T13:39:21.500Z,32.53
2018-08-16T13:40:21.451Z,32.32
2018-08-16T13:41:21.564Z,32.57
2018-08-16T13:42:21.803Z,32.88
2018-08-16T13:43:21.440Z,32.48
2018-08-16T13:44:21.445Z,32.32
2018-08-16T13:45:21.493Z,32.24
2018-08-16T13:46:21.442Z,32.41
2018-08-16T13:47:21.450Z,32.60
2018-08-16T13:48:21.774Z,32.61
2018-08-16T13:49:21.456Z,32.57
2018-08-16T13:50:21.471Z,32.28
2018-08-16T13:51:21.503Z,32.27
2018-08-16T13:54:21.787Z,31.52
2018-08-16T13:55:21.433Z,31.79
2018-08-16T13:56:21.445Z,32.26
2018-08-16T13:57:21.491Z,32.46
2018-08-16T13:58:21.427Z,32.54
2018-08-16T14:00:21.832Z,32.41
2018-08-16T14:01:21.433Z,32.73
2018-08-16T14:03:21.493Z,32.17
2018-08-16T14:04:21.427Z,31.98
2018-08-16T14:05:21.500Z,31.78
2018-08-16T14:06:21.770Z,31.63
2018-08-16T14:07:21.426Z,31.70
2018-08-16T14:08:21.469Z,31.48
2018-08-16T14:09:21.490Z,31.49
2018-08-16T14:10:21.415Z,31.70
2018-08-16T14:11:21.426Z,32.09
2018-08-16T14:12:21.720Z,32.20
2018-08-16T14:13:21.745Z,32.13
2018-08-16T14:15:21.660Z,32.09
2018-08-16T14:16:21.412Z,32.16
2018-08-16T14:17:21.416Z,31.75
2018-08-16T14:18:21.824Z,31.94
2018-08-16T14:19:21.470Z,31.37
2018-08-16T14:23:21.413Z,32.57
2018-08-16T14:24:21.710Z,32.99
2018-08-16T14:25:21.475Z,33.36
2018-08-16T14:26:21.418Z,33.16
2018-08-16T14:27:21.462Z,33.24
2018-08-16T14:28:21.434Z,32.69
2018-08-16T14:29:21.413Z,32.68
2018-08-16T14:30:21.477Z,32.80
2018-08-16T14:32:21.819Z,33.54
2018-08-16T14:33:21.460Z,33.60
2018-08-16T14:40:21.404Z,32.75
2018-08-16T14:41:21.409Z,32.43
2018-08-16T14:42:21.408Z,32.57
2018-08-16T14:43:21.409Z,32.60
2018-08-16T14:44:21.708Z,32.21
2018-08-16T14:45:21.462Z,32.20
2018-08-16T14:46:21.412Z,31.51
2018-08-16T14:47:21.414Z,31.81
2018-08-16T14:50:21.414Z,32.48
2018-08-16T14:52:21.518Z,32.51
2018-08-16T14:53:21.456Z,32.38
2018-08-16T14:55:21.432Z,32.76
2018-08-16T14:56:21.572Z,32.95
2018-08-16T14:57:22.528Z,32.94
2018-08-16T14:58:21.448Z,32.32
2018-08-16T15:01:21.508Z,31.98
2018-08-16T15:02:21.429Z,31.86
2018-08-16T15:04:24.623Z,31.82
2018-08-16T15:05:21.433Z,31.49
2018-08-16T15:06:21.409Z,31.98
2018-08-16T15:07:21.409Z,32.16
2018-08-16T15:08:22.609Z,32.13
2018-08-16T15:09:21.809Z,31.68
2018-08-16T15:10:21.527Z,31.75
2018-08-16T15:11:21.486Z,32.08
2018-08-16T15:12:21.428Z,32.23
2018-08-16T15:13:21.417Z,32.39
2018-08-16T15:14:21.425Z,32.33
2018-08-16T15:15:21.777Z,32.05
2018-08-16T15:17:21.448Z,31.61
2018-08-16T15:18:21.403Z,31.79
2018-08-16T15:19:21.582Z,31.63
2018-08-16T15:20:23.265Z,31.66
2018-08-16T15:22:21.422Z,31.74
2018-08-16T15:23:21.403Z,31.61
2018-08-16T15:24:21.413Z,31.78
2018-08-16T15:25:21.429Z,31.90
2018-08-16T15:27:21.701Z,31.45
2018-08-16T15:28:21.404Z,31.49
2018-08-16T15:29:21.410Z,31.75
2018-08-16T15:30:21.570Z,31.94
2018-08-16T15:31:21.692Z,31.27
2018-08-16T15:32:21.553Z,31.42
2018-08-16T15:33:21.696Z,31.11
2018-08-16T15:34:21.506Z,31.48
2018-08-16T15:35:21.400Z,31.76
2018-08-16T15:36:21.393Z,31.29
2018-08-16T15:37:21.468Z,31.07
2018-08-16T15:38:21.491Z,31.23
2018-08-16T15:39:22.144Z,31.38
2018-08-16T15:40:21.394Z,31.51
2018-08-16T15:41:21.442Z,31.45
2018-08-16T15:42:21.419Z,31.71
2018-08-16T15:43:21.452Z,31.60
2018-08-16T15:44:21.448Z,31.81
2018-08-16T15:45:21.700Z,31.79
2018-08-16T15:46:21.463Z,31.42
2018-08-16T15:47:21.452Z,31.41
2018-08-16T15:48:21.424Z,31.51
2018-08-16T15:49:21.630Z,31.63
2018-08-16T15:50:21.436Z,31.45
2018-08-16T15:51:21.692Z,31.57
2018-08-16T15:52:21.380Z,31.32
2018-08-16T15:53:21.423Z,30.97
2018-08-16T15:54:21.384Z,30.77
2018-08-16T15:55:21.385Z,30.90
2018-08-16T15:56:21.555Z,30.52
2018-08-16T15:57:21.710Z,30.43
2018-08-16T15:58:21.383Z,30.52
2018-08-16T15:59:21.421Z,30.53
2018-08-16T16:00:21.394Z,30.55
2018-08-16T16:02:21.453Z,30.56
2018-08-16T16:03:21.789Z,30.71
2018-08-16T16:04:21.404Z,30.82
2018-08-16T16:05:21.380Z,31.01
2018-08-16T16:06:21.399Z,30.74
2018-08-16T16:07:21.384Z,30.86
2018-08-16T16:08:21.412Z,30.60
2018-08-16T16:09:21.441Z,30.51
2018-08-16T16:10:21.677Z,30.53
2018-08-16T16:11:21.366Z,30.35
2018-08-16T16:12:21.392Z,30.26
2018-08-16T16:13:21.573Z,30.58
2018-08-16T16:14:21.389Z,30.82
2018-08-16T16:15:21.545Z,30.75
2018-08-16T16:16:21.666Z,30.78
2018-08-16T16:17:21.380Z,30.73
2018-08-16T16:18:21.335Z,30.73
2018-08-16T16:20:21.524Z,30.15
2018-08-16T16:21:23.720Z,30.13
2018-08-16T16:22:21.623Z,29.93
2018-08-16T16:23:21.521Z,29.71
2018-08-16T16:24:21.398Z,29.61
2018-08-16T16:25:21.399Z,29.50
2018-08-16T16:28:21.781Z,29.68
2018-08-16T16:31:21.321Z,29.95
2018-08-16T16:32:21.354Z,29.99
2018-08-16T16:35:21.348Z,29.95
2018-08-16T16:36:21.287Z,30.10
2018-08-16T16:37:21.277Z,30.00
2018-08-16T16:38:21.462Z,30.00
2018-08-16T16:39:21.278Z,29.96
2018-08-16T16:40:21.270Z,30.08
2018-08-16T16:41:21.565Z,30.02
2018-08-16T16:42:21.271Z,30.08
2018-08-16T16:43:21.262Z,29.96
2018-08-16T16:45:21.255Z,29.77
2018-08-16T16:46:21.275Z,29.65
2018-08-16T16:47:21.569Z,29.59
2018-08-16T16:48:21.247Z,29.63
2018-08-16T16:49:21.259Z,29.49
2018-08-16T16:50:21.412Z,29.55
2018-08-16T16:51:21.231Z,29.47
2018-08-16T16:52:21.228Z,29.49
2018-08-16T16:53:21.523Z,29.36